createdAt,value
2019-04-19T00:01:02.603Z,0
2019-04-19T00:02:04.750Z,0
2019-04-19T00:03:00.236Z,0
2019-04-19T00:04:04.627Z,0
2019-04-19T00:05:03.014Z,0
2019-04-19T00:06:00.150Z,0
2019-04-19T00:07:06.808Z,0
2019-04-19T00:08:15.159Z,0
2019-04-19T00:09:12.775Z,0
2019-04-19T00:10:05.666Z,0
2019-04-19T00:11:11.543Z,0
2019-04-19T00:12:14.468Z,0
2019-04-19T00:13:02.765Z,0
2019-04-19T00:13:59.987Z,0
2019-04-19T00:14:59.051Z,0
2019-04-19T00:15:58.909Z,0
2019-04-19T00:16:59.646Z,0
2019-04-19T00:18:06.000Z,0
2019-04-19T00:19:19.460Z,0
2019-04-19T00:20:25.371Z,0
2019-04-19T00:21:18.086Z,0
2019-04-19T00:22:18.361Z,0
2019-04-19T00:23:08.315Z,0
2019-04-19T00:24:00.178Z,0
2019-04-19T00:24:59.268Z,0
2019-04-19T00:26:00.304Z,0
2019-04-19T00:26:59.371Z,0
2019-04-19T00:28:01.382Z,0
2019-04-19T00:29:05.082Z,0
2019-04-19T00:30:13.851Z,0
2019-04-19T00:31:16.619Z,0
2019-04-19T00:32:16.588Z,0
2019-04-19T00:33:14.284Z,0
2019-04-19T00:34:01.427Z,0
2019-04-19T00:35:01.183Z,0
2019-04-19T00:36:00.267Z,0
2019-04-19T00:37:01.622Z,0
2019-04-19T00:38:06.860Z,0
2019-04-19T00:39:18.349Z,0
2019-04-19T00:40:26.199Z,0
2019-04-19T00:41:17.518Z,0
2019-04-19T00:42:16.136Z,0
2019-04-19T00:43:12.314Z,0
2019-04-19T00:44:19.487Z,0
2019-04-19T00:45:18.401Z,0
2019-04-19T00:46:15.656Z,0
2019-04-19T00:47:18.897Z,0
2019-04-19T00:48:11.826Z,0
2019-04-19T00:49:13.122Z,0
2019-04-19T00:50:12.411Z,0
2019-04-19T00:51:10.872Z,0
2019-04-19T00:52:14.509Z,0
2019-04-19T00:53:14.246Z,0
2019-04-19T00:54:12.682Z,0
2019-04-19T00:55:09.908Z,0
2019-04-19T00:56:09.256Z,0
2019-04-19T00:57:06.119Z,0
2019-04-19T00:58:09.043Z,0
2019-04-19T00:59:05.462Z,0
2019-04-19T01:00:02.022Z,0
2019-04-19T01:01:05.810Z,0
2019-04-19T01:02:07.274Z,0
2019-04-19T01:03:02.639Z,0
2019-04-19T01:04:05.029Z,0
2019-04-19T01:05:06.742Z,0
2019-04-19T01:06:06.686Z,0
2019-04-19T01:07:04.074Z,0
2019-04-19T01:08:07.158Z,0
2019-04-19T01:09:18.954Z,0
2019-04-19T01:10:14.610Z,0
2019-04-19T01:11:17.872Z,0
2019-04-19T01:12:14.756Z,0
2019-04-19T01:13:10.486Z,0
2019-04-19T01:14:16.877Z,0
2019-04-19T01:15:13.677Z,0
2019-04-19T01:16:12.811Z,0
2019-04-19T01:17:16.140Z,0
2019-04-19T01:18:14.640Z,0
2019-04-19T01:19:07.802Z,0
2019-04-19T01:20:05.202Z,0
2019-04-19T01:21:02.851Z,0
2019-04-19T01:22:08.049Z,0
2019-04-19T01:23:07.070Z,0
2019-04-19T01:24:04.530Z,0
2019-04-19T01:25:08.591Z,0
2019-04-19T01:26:05.598Z,0
2019-04-19T01:27:02.491Z,0
2019-04-19T01:28:04.995Z,0
2019-04-19T01:29:06.157Z,0
2019-04-19T01:30:02.874Z,0
2019-04-19T01:31:02.856Z,0
2019-04-19T01:32:08.078Z,0
2019-04-19T01:33:03.848Z,0
2019-04-19T01:34:02.749Z,0
2019-04-19T01:35:07.019Z,0
2019-04-19T01:36:02.128Z,0
2019-04-19T01:37:03.285Z,0
2019-04-19T01:38:05.152Z,0
2019-04-19T01:39:17.421Z,0
2019-04-19T01:40:16.583Z,0
2019-04-19T01:41:16.848Z,0
2019-04-19T01:42:20.751Z,0
2019-04-19T01:43:23.385Z,0
2019-04-19T01:44:23.538Z,0
2019-04-19T01:45:17.023Z,0
2019-04-19T01:46:13.742Z,0
2019-04-19T01:47:23.548Z,0
2019-04-19T01:48:20.104Z,0
2019-04-19T01:49:12.561Z,0
2019-04-19T01:50:12.142Z,0
2019-04-19T01:51:15.700Z,0
2019-04-19T01:52:29.809Z,0
2019-04-19T01:53:20.406Z,0
2019-04-19T01:54:16.122Z,0
2019-04-19T01:55:12.144Z,0
2019-04-19T01:56:06.234Z,0
2019-04-19T01:57:05.473Z,0
2019-04-19T01:58:06.497Z,0
2019-04-19T01:59:03.626Z,0
2019-04-19T02:00:02.565Z,0
2019-04-19T02:01:04.335Z,0
2019-04-19T02:02:07.079Z,0
2019-04-19T02:03:03.332Z,0
2019-04-19T02:04:05.141Z,0
2019-04-19T02:05:06.759Z,0
2019-04-19T02:06:06.648Z,0
2019-04-19T02:07:04.989Z,0
2019-04-19T02:08:06.940Z,0
2019-04-19T02:09:03.505Z,0
2019-04-19T02:10:12.908Z,0
2019-04-19T02:11:08.697Z,0
2019-04-19T02:12:17.916Z,0
2019-04-19T02:13:14.474Z,0
2019-04-19T02:14:09.910Z,0
2019-04-19T02:15:09.530Z,0
2019-04-19T02:16:10.094Z,0
2019-04-19T02:17:06.808Z,0
2019-04-19T02:18:03.115Z,0
2019-04-19T02:19:08.591Z,0
2019-04-19T02:20:07.138Z,0
2019-04-19T02:21:02.906Z,0
2019-04-19T02:22:09.859Z,0
2019-04-19T02:23:07.873Z,0
2019-04-19T02:24:04.180Z,0
2019-04-19T02:25:03.966Z,0
2019-04-19T02:26:06.381Z,0
2019-04-19T02:27:07.571Z,0
2019-04-19T02:28:03.099Z,0
2019-04-19T02:29:09.077Z,0
2019-04-19T02:30:13.829Z,0
2019-04-19T02:31:18.332Z,0
2019-04-19T02:32:27.438Z,0
2019-04-19T02:33:28.875Z,0
2019-04-19T02:34:33.281Z,0
2019-04-19T02:35:21.760Z,0
2019-04-19T02:36:35.320Z,0
2019-04-19T02:37:31.329Z,0
2019-04-19T02:38:28.590Z,0
2019-04-19T02:39:44.689Z,0
2019-04-19T02:40:44.835Z,0
2019-04-19T02:43:35.498Z,0
2019-04-19T02:44:23.506Z,0
2019-04-19T02:45:49.038Z,0
2019-04-19T02:46:32.266Z,0
2019-04-19T02:48:35.397Z,0
2019-04-19T02:49:35.397Z,0
2019-04-19T02:50:42.728Z,0
2019-04-19T02:51:43.423Z,0
2019-04-19T02:53:29.375Z,0
2019-04-19T02:54:33.385Z,0
2019-04-19T02:56:44.251Z,0
2019-04-19T02:57:32.596Z,0
2019-04-19T02:58:32.113Z,0
2019-04-19T02:59:38.439Z,0
2019-04-19T03:01:37.674Z,0
2019-04-19T03:03:22.736Z,0
2019-04-19T03:05:26.993Z,0
2019-04-19T03:06:16.275Z,0
2019-04-19T03:07:05.992Z,0
2019-04-19T03:08:04.163Z,0
2019-04-19T03:09:03.034Z,0
2019-04-19T03:10:04.829Z,0
2019-04-19T03:11:11.498Z,0
2019-04-19T03:12:16.427Z,0
2019-04-19T03:13:16.964Z,0
2019-04-19T03:14:16.200Z,0
2019-04-19T03:15:13.666Z,0
2019-04-19T03:16:25.050Z,0
2019-04-19T03:17:23.058Z,0
2019-04-19T03:18:33.835Z,0
2019-04-19T03:19:13.174Z,0
2019-04-19T03:20:21.290Z,0
2019-04-19T03:21:24.937Z,0
2019-04-19T03:22:22.706Z,0
2019-04-19T03:23:17.436Z,0
2019-04-19T03:24:18.585Z,0
2019-04-19T03:25:18.102Z,0
2019-04-19T03:26:19.463Z,0
2019-04-19T03:27:12.361Z,0
2019-04-19T03:28:15.010Z,0
2019-04-19T03:29:10.824Z,0
2019-04-19T03:30:22.976Z,0
2019-04-19T03:31:31.727Z,0
2019-04-19T03:32:44.492Z,0
2019-04-19T03:33:33.019Z,0
2019-04-19T03:34:40.480Z,0
2019-04-19T03:35:13.914Z,0
2019-04-19T03:36:19.579Z,0
2019-04-19T03:37:23.755Z,0
2019-04-19T03:38:23.704Z,0
2019-04-19T03:39:22.768Z,0
2019-04-19T03:40:22.951Z,0
2019-04-19T03:41:46.379Z,0
2019-04-19T03:42:27.048Z,0
2019-04-19T03:43:31.208Z,0
2019-04-19T03:44:20.933Z,0
2019-04-19T03:45:21.741Z,0
2019-04-19T03:46:18.404Z,0
2019-04-19T03:47:20.778Z,0
2019-04-19T03:48:20.765Z,0
2019-04-19T03:49:30.152Z,0
2019-04-19T03:50:19.710Z,0
2019-04-19T03:51:23.190Z,0
2019-04-19T03:52:25.766Z,0
2019-04-19T03:53:30.703Z,0
2019-04-19T03:54:23.173Z,0
2019-04-19T03:55:23.752Z,0
2019-04-19T03:56:20.363Z,0
2019-04-19T03:57:18.247Z,0
2019-04-19T03:58:11.339Z,0
2019-04-19T03:59:05.135Z,0
2019-04-19T04:00:04.876Z,0
2019-04-19T04:01:04.582Z,0
2019-04-19T04:02:05.426Z,0
2019-04-19T04:03:08.709Z,0
2019-04-19T04:04:11.682Z,0
2019-04-19T04:05:09.592Z,0
2019-04-19T04:06:06.212Z,0
2019-04-19T04:07:12.256Z,0
2019-04-19T04:08:10.057Z,0
2019-04-19T04:09:07.742Z,0
2019-04-19T04:10:06.582Z,0
2019-04-19T04:11:07.953Z,0
2019-04-19T04:12:19.450Z,0
2019-04-19T04:13:19.870Z,0
2019-04-19T04:14:18.633Z,0
2019-04-19T04:15:17.198Z,0
2019-04-19T04:16:11.339Z,0
2019-04-19T04:17:05.857Z,0
2019-04-19T04:18:04.832Z,0
2019-04-19T04:19:06.058Z,0
2019-04-19T04:20:05.804Z,0
2019-04-19T04:21:05.458Z,0
2019-04-19T04:22:07.339Z,0
2019-04-19T04:23:10.399Z,0
2019-04-19T04:24:15.917Z,0
2019-04-19T04:25:13.239Z,0
2019-04-19T04:26:11.402Z,0
2019-04-19T04:27:14.460Z,0
2019-04-19T04:28:17.309Z,0
2019-04-19T04:29:14.503Z,5.625
2019-04-19T04:30:17.267Z,5.625
2019-04-19T04:31:17.087Z,5.625
2019-04-19T04:32:15.473Z,5.625
2019-04-19T04:33:14.717Z,5.625
2019-04-19T04:34:22.956Z,5.625
2019-04-19T04:35:23.781Z,5.625
2019-04-19T04:36:24.871Z,5.625
2019-04-19T04:37:24.396Z,5.625
2019-04-19T04:38:16.639Z,5.625
2019-04-19T04:39:07.258Z,11.25
2019-04-19T04:40:06.290Z,11.25
2019-04-19T04:41:12.605Z,11.25
2019-04-19T04:42:15.589Z,11.25
2019-04-19T04:43:18.783Z,11.25
2019-04-19T04:44:18.971Z,11.25
2019-04-19T04:45:27.556Z,11.25
2019-04-19T04:46:26.693Z,11.25
2019-04-19T04:47:23.900Z,11.25
2019-04-19T04:48:27.434Z,16.875
2019-04-19T04:49:34.212Z,16.875
2019-04-19T04:50:30.199Z,16.875
2019-04-19T04:51:24.917Z,16.875
2019-04-19T04:52:16.770Z,16.875
2019-04-19T04:53:08.894Z,16.875
2019-04-19T04:54:08.187Z,16.875
2019-04-19T04:55:07.248Z,16.875
2019-04-19T04:56:09.201Z,22.5
2019-04-19T04:57:11.461Z,22.5
2019-04-19T04:58:16.130Z,22.5
2019-04-19T04:59:12.974Z,22.5
2019-04-19T05:00:09.589Z,22.5
2019-04-19T05:01:13.655Z,22.5
2019-04-19T05:02:23.021Z,22.5
2019-04-19T05:03:20.830Z,22.5
2019-04-19T05:04:23.720Z,28.125
2019-04-19T05:05:24.420Z,28.125
2019-04-19T05:06:25.311Z,28.125
2019-04-19T05:07:27.899Z,28.125
2019-04-19T05:08:29.337Z,28.125
2019-04-19T05:09:27.757Z,28.125
2019-04-19T05:10:24.588Z,28.125
2019-04-19T05:11:24.234Z,28.125
2019-04-19T05:12:36.242Z,33.75
2019-04-19T05:13:27.217Z,33.75
2019-04-19T05:14:27.295Z,33.75
2019-04-19T05:15:41.475Z,33.75
2019-04-19T05:16:37.635Z,33.75
2019-04-19T05:17:38.878Z,33.75
2019-04-19T05:18:29.218Z,33.75
2019-04-19T05:19:30.458Z,33.75
2019-04-19T05:20:27.134Z,39.375
2019-04-19T05:21:27.035Z,39.375
2019-04-19T05:22:21.988Z,39.375
2019-04-19T05:23:25.894Z,39.375
2019-04-19T05:24:31.390Z,39.375
2019-04-19T05:25:35.613Z,39.375
2019-04-19T05:27:32.671Z,39.375
2019-04-19T05:28:27.161Z,39.375
2019-04-19T05:29:22.614Z,45
2019-04-19T05:30:13.140Z,45
2019-04-19T05:31:21.063Z,45
2019-04-19T05:32:19.284Z,45
2019-04-19T05:33:22.599Z,45
2019-04-19T05:34:31.937Z,45
2019-04-19T05:35:22.256Z,45
2019-04-19T05:36:28.897Z,45
2019-04-19T05:37:26.776Z,45
2019-04-19T05:38:37.529Z,45
2019-04-19T05:39:36.865Z,50.625
2019-04-19T05:40:27.597Z,50.625
2019-04-19T05:41:29.565Z,50.625
2019-04-19T05:42:34.117Z,50.625
2019-04-19T05:43:51.120Z,50.625
2019-04-19T05:44:35.146Z,50.625
2019-04-19T05:45:36.428Z,50.625
2019-04-19T05:46:34.777Z,50.625
2019-04-19T05:47:25.757Z,50.625
2019-04-19T05:48:23.399Z,50.625
2019-04-19T05:49:26.152Z,56.25
2019-04-19T05:50:35.520Z,56.25
2019-04-19T05:51:38.465Z,56.25
2019-04-19T05:52:33.997Z,56.25
2019-04-19T05:53:22.060Z,56.25
2019-04-19T05:54:16.687Z,56.25
2019-04-19T05:55:16.757Z,56.25
2019-04-19T05:56:15.730Z,56.25
2019-04-19T05:57:35.743Z,56.25
2019-04-19T05:58:22.800Z,56.25
2019-04-19T05:59:23.010Z,56.25
2019-04-19T06:00:29.111Z,61.875
2019-04-19T06:01:35.957Z,61.875
2019-04-19T06:02:24.278Z,61.875
2019-04-19T06:03:25.225Z,61.875
2019-04-19T06:04:31.039Z,61.875
2019-04-19T06:05:42.106Z,61.875
2019-04-19T06:06:37.115Z,61.875
2019-04-19T06:07:29.915Z,61.875
2019-04-19T06:08:22.670Z,61.875
2019-04-19T06:09:17.492Z,61.875
2019-04-19T06:10:17.242Z,61.875
2019-04-19T06:11:22.999Z,67.5
2019-04-19T06:12:22.925Z,67.5
2019-04-19T06:13:18.441Z,67.5
2019-04-19T06:14:38.227Z,67.5
2019-04-19T06:15:36.398Z,67.5
2019-04-19T06:16:34.890Z,67.5
2019-04-19T06:17:30.310Z,67.5
2019-04-19T06:18:31.406Z,67.5
2019-04-19T06:19:34.896Z,67.5
2019-04-19T06:20:33.550Z,67.5
2019-04-19T06:21:32.513Z,67.5
2019-04-19T06:22:32.566Z,73.125
2019-04-19T06:23:37.974Z,73.125
2019-04-19T06:24:36.148Z,73.125
2019-04-19T06:25:45.597Z,73.125
2019-04-19T06:26:53.247Z,73.125
2019-04-19T06:27:49.281Z,73.125
2019-04-19T06:28:43.478Z,73.125
2019-04-19T06:29:43.486Z,73.125
2019-04-19T06:30:36.027Z,73.125
2019-04-19T06:31:39.282Z,73.125
2019-04-19T06:32:38.556Z,73.125
2019-04-19T06:33:37.306Z,73.125
2019-04-19T06:34:35.971Z,73.125
2019-04-19T06:35:29.266Z,78.75
2019-04-19T06:36:20.928Z,78.75
2019-04-19T06:37:21.978Z,78.75
2019-04-19T06:38:20.402Z,78.75
2019-04-19T06:39:20.427Z,78.75
2019-04-19T06:40:24.665Z,78.75
2019-04-19T06:41:23.195Z,78.75
2019-04-19T06:42:31.764Z,78.75
2019-04-19T06:43:34.601Z,78.75
2019-04-19T06:44:42.299Z,78.75
2019-04-19T06:45:34.244Z,78.75
2019-04-19T06:46:34.839Z,78.75
2019-04-19T06:47:28.334Z,78.75
2019-04-19T06:48:25.365Z,78.75
2019-04-19T06:49:24.897Z,84.375
2019-04-19T06:50:22.895Z,84.375
2019-04-19T06:51:28.200Z,84.375
2019-04-19T06:52:24.721Z,84.375
2019-04-19T06:53:20.915Z,78.75
2019-04-19T06:54:28.464Z,78.75
2019-04-19T06:55:26.571Z,78.75
2019-04-19T06:56:28.089Z,78.75
2019-04-19T06:57:27.040Z,78.75
2019-04-19T06:58:24.696Z,78.75
2019-04-19T06:59:37.936Z,78.75
2019-04-19T07:00:33.820Z,78.75
2019-04-19T07:01:33.206Z,78.75
2019-04-19T07:02:22.206Z,78.75
2019-04-19T07:03:21.577Z,84.375
2019-04-19T07:04:21.168Z,84.375
2019-04-19T07:05:33.417Z,84.375
2019-04-19T07:06:31.986Z,84.375
2019-04-19T07:07:40.625Z,84.375
2019-04-19T07:09:44.293Z,84.375
2019-04-19T07:10:49.917Z,84.375
2019-04-19T07:11:45.893Z,84.375
2019-04-19T07:12:39.895Z,84.375
2019-04-19T07:13:35.584Z,84.375
2019-04-19T07:14:26.146Z,84.375
2019-04-19T07:15:49.579Z,84.375
2019-04-19T07:16:43.904Z,84.375
2019-04-19T07:17:37.475Z,84.375
2019-04-19T07:18:36.795Z,90
2019-04-19T07:19:43.642Z,90
2019-04-19T07:20:33.573Z,90
2019-04-19T07:21:42.075Z,90
2019-04-19T07:22:41.123Z,90
2019-04-19T07:23:43.400Z,90
2019-04-19T07:24:44.098Z,90
2019-04-19T07:25:46.276Z,90
2019-04-19T07:26:42.155Z,90
2019-04-19T07:27:36.450Z,90
2019-04-19T07:28:28.849Z,90
2019-04-19T07:29:25.367Z,90
2019-04-19T07:30:24.634Z,90
2019-04-19T07:31:23.895Z,90
2019-04-19T07:32:32.906Z,95.625
2019-04-19T07:33:34.908Z,95.625
2019-04-19T07:34:41.815Z,95.625
2019-04-19T07:35:46.759Z,95.625
2019-04-19T07:36:44.264Z,95.625
2019-04-19T07:37:39.447Z,95.625
2019-04-19T07:38:45.495Z,95.625
2019-04-19T07:39:45.363Z,95.625
2019-04-19T07:41:00.007Z,95.625
2019-04-19T07:41:43.721Z,95.625
2019-04-19T07:42:43.530Z,95.625
2019-04-19T07:43:38.350Z,95.625
2019-04-19T07:44:34.660Z,101.25
2019-04-19T07:45:32.874Z,101.25
2019-04-19T07:46:44.086Z,101.25
2019-04-19T07:47:37.278Z,101.25
2019-04-19T07:48:26.240Z,101.25
2019-04-19T07:49:27.208Z,101.25
2019-04-19T07:50:29.521Z,101.25
2019-04-19T07:51:30.725Z,101.25
2019-04-19T07:52:35.306Z,101.25
2019-04-19T07:53:31.941Z,101.25
2019-04-19T07:54:30.657Z,106.875
2019-04-19T07:55:26.810Z,106.875
2019-04-19T07:56:38.670Z,106.875
2019-04-19T07:59:02.243Z,112.5
2019-04-19T07:59:45.090Z,112.5
2019-04-19T08:00:51.338Z,112.5
2019-04-19T08:02:01.306Z,118.125
2019-04-19T08:02:54.427Z,118.125
2019-04-19T08:04:08.502Z,118.125
2019-04-19T08:07:00.880Z,118.125
2019-04-19T08:08:55.666Z,123.75
2019-04-19T08:10:54.556Z,348.75
2019-04-19T08:12:49.173Z,815.625
2019-04-19T08:13:57.706Z,770.625
2019-04-19T08:15:59.089Z,990
2019-04-19T08:17:46.428Z,995.625
2019-04-19T08:27:33.615Z,916.875
2019-04-19T08:28:40.782Z,826.875
2019-04-19T08:29:40.550Z,624.375
2019-04-19T08:30:37.737Z,540
2019-04-19T08:31:30.280Z,950.625
2019-04-19T08:32:30.071Z,1091.25
2019-04-19T08:33:29.667Z,1029.375
2019-04-19T08:34:29.960Z,860.625
2019-04-19T08:35:31.769Z,866.25
2019-04-19T08:36:34.222Z,540
2019-04-19T08:37:36.322Z,534.375
2019-04-19T08:38:32.204Z,579.375
2019-04-19T08:39:44.562Z,646.875
2019-04-19T08:40:49.766Z,691.875
2019-04-19T08:41:46.044Z,466.875
2019-04-19T08:42:46.788Z,354.375
2019-04-19T08:43:44.863Z,371.25
2019-04-19T08:44:42.771Z,478.125
2019-04-19T08:45:32.889Z,624.375
2019-04-19T08:46:30.654Z,658.125
2019-04-19T08:47:37.361Z,703.125
2019-04-19T08:48:39.061Z,540
2019-04-19T08:49:36.866Z,450
2019-04-19T08:50:34.846Z,416.25
2019-04-19T08:51:35.661Z,236.25
2019-04-19T08:52:35.416Z,247.5
2019-04-19T08:53:45.840Z,298.125
2019-04-19T08:54:52.009Z,438.75
2019-04-19T08:55:48.750Z,309.375
2019-04-19T08:56:42.634Z,410.625
2019-04-19T08:57:34.351Z,500.625
2019-04-19T08:58:48.533Z,410.625
2019-04-19T08:59:52.561Z,405
2019-04-19T09:00:57.380Z,388.125
2019-04-19T09:01:55.629Z,376.875
2019-04-19T09:02:45.009Z,421.875
2019-04-19T09:03:56.805Z,354.375
2019-04-19T09:04:49.314Z,444.375
2019-04-19T09:05:54.531Z,579.375
2019-04-19T09:07:29.467Z,714.375
2019-04-19T09:07:53.391Z,894.375
2019-04-19T09:08:49.960Z,922.5
2019-04-19T09:10:11.876Z,860.625
2019-04-19T09:10:55.613Z,798.75
2019-04-19T09:11:57.251Z,663.75
2019-04-19T09:12:57.460Z,815.625
2019-04-19T09:13:55.392Z,1085.625
2019-04-19T09:14:56.135Z,646.875
2019-04-19T09:15:49.988Z,281.25
2019-04-19T09:18:24.719Z,793.125
2019-04-19T09:19:14.424Z,973.125
2019-04-19T09:20:05.507Z,770.625
2019-04-19T09:20:54.313Z,416.25
2019-04-19T09:21:48.347Z,601.875
2019-04-19T09:22:44.805Z,675
2019-04-19T09:23:45.404Z,630
2019-04-19T09:24:43.967Z,573.75
2019-04-19T09:25:43.936Z,646.875
2019-04-19T09:26:52.647Z,748.125
2019-04-19T09:27:54.597Z,804.375
2019-04-19T09:28:54.003Z,585
2019-04-19T09:29:58.307Z,624.375
2019-04-19T09:30:51.986Z,596.25
2019-04-19T09:31:48.123Z,843.75
2019-04-19T09:32:39.027Z,877.5
2019-04-19T09:33:39.701Z,523.125
2019-04-19T09:34:40.351Z,438.75
2019-04-19T09:35:42.445Z,545.625
2019-04-19T09:36:43.159Z,725.625
2019-04-19T09:37:50.662Z,714.375
2019-04-19T09:38:50.010Z,298.125
2019-04-19T09:39:48.332Z,163.125
2019-04-19T09:40:44.150Z,157.5
2019-04-19T09:41:44.024Z,191.25
2019-04-19T09:42:48.455Z,320.625
2019-04-19T09:43:49.106Z,303.75
2019-04-19T09:44:41.433Z,382.5
2019-04-19T09:45:38.251Z,596.25
2019-04-19T09:46:38.001Z,523.125
2019-04-19T09:47:38.273Z,590.625
2019-04-19T09:48:55.221Z,506.25
2019-04-19T09:49:52.298Z,528.75
2019-04-19T09:50:54.804Z,360
2019-04-19T09:51:55.215Z,292.5
2019-04-19T09:52:59.594Z,393.75
2019-04-19T09:54:02.499Z,450
2019-04-19T09:55:03.092Z,691.875
2019-04-19T09:56:01.374Z,495
2019-04-19T09:56:53.201Z,466.875
2019-04-19T09:57:59.686Z,320.625
2019-04-19T09:58:52.973Z,298.125
2019-04-19T09:59:42.417Z,354.375
2019-04-19T10:00:40.876Z,382.5
2019-04-19T10:01:44.216Z,641.25
2019-04-19T10:02:46.776Z,849.375
2019-04-19T10:03:45.515Z,742.5
2019-04-19T10:04:40.151Z,371.25
2019-04-19T10:05:39.219Z,253.125
2019-04-19T10:06:40.636Z,208.125
2019-04-19T10:07:39.222Z,185.625
2019-04-19T10:08:40.078Z,247.5
2019-04-19T10:09:40.487Z,208.125
2019-04-19T10:10:40.831Z,230.625
2019-04-19T10:11:41.182Z,230.625
2019-04-19T10:12:39.816Z,343.125
2019-04-19T10:13:39.887Z,348.75
2019-04-19T10:14:39.692Z,675
2019-04-19T10:15:40.511Z,298.125
2019-04-19T10:16:40.076Z,725.625
2019-04-19T10:17:40.601Z,601.875
2019-04-19T10:18:49.047Z,444.375
2019-04-19T10:19:40.791Z,635.625
2019-04-19T10:20:40.711Z,348.75
2019-04-19T10:21:41.942Z,433.125
2019-04-19T10:22:41.104Z,663.75
2019-04-19T10:23:39.902Z,596.25
2019-04-19T10:24:41.063Z,663.75
2019-04-19T10:25:47.634Z,686.25
2019-04-19T10:26:42.507Z,916.875
2019-04-19T10:27:41.340Z,1136.25
2019-04-19T10:28:40.354Z,556.875
2019-04-19T10:29:42.504Z,241.875
2019-04-19T10:30:42.672Z,354.375
2019-04-19T10:31:40.918Z,388.125
2019-04-19T10:32:42.377Z,506.25
2019-04-19T10:33:49.714Z,489.375
2019-04-19T10:34:42.816Z,416.25
2019-04-19T10:35:41.248Z,298.125
2019-04-19T10:36:41.056Z,382.5
2019-04-19T10:37:42.069Z,416.25
2019-04-19T10:38:43.387Z,253.125
2019-04-19T10:39:43.479Z,292.5
2019-04-19T10:40:43.639Z,315
2019-04-19T10:41:41.413Z,534.375
2019-04-19T10:42:41.473Z,669.375
2019-04-19T10:43:41.476Z,877.5
2019-04-19T10:44:42.492Z,1164.375
2019-04-19T10:45:42.638Z,1260
2019-04-19T10:46:42.834Z,871.875
2019-04-19T10:47:44.200Z,781.875
2019-04-19T10:48:41.789Z,523.125
2019-04-19T10:49:49.868Z,691.875
2019-04-19T10:50:47.308Z,303.75
2019-04-19T10:51:43.851Z,298.125
2019-04-19T10:52:42.042Z,646.875
2019-04-19T10:53:42.183Z,1068.75
2019-04-19T10:54:43.201Z,1130.625
2019-04-19T10:55:44.372Z,1170
2019-04-19T10:56:42.343Z,1181.25
2019-04-19T10:57:43.168Z,1102.5
2019-04-19T10:58:43.243Z,1130.625
2019-04-19T10:59:42.614Z,1057.5
2019-04-19T11:00:43.059Z,1006.875
2019-04-19T11:01:43.333Z,1018.125
2019-04-19T11:02:42.357Z,995.625
2019-04-19T11:03:42.516Z,1434.375
2019-04-19T11:04:42.862Z,1569.375
2019-04-19T11:05:42.833Z,1670.625
2019-04-19T11:06:42.551Z,1760.625
2019-04-19T11:07:43.615Z,1783.125
2019-04-19T11:08:42.771Z,1811.25
2019-04-19T11:09:43.728Z,1850.625
2019-04-19T11:10:43.339Z,1878.75
2019-04-19T11:11:43.552Z,1912.5
2019-04-19T11:12:43.016Z,1940.625
2019-04-19T11:13:43.849Z,1985.625
2019-04-19T11:14:43.882Z,2058.75
2019-04-19T11:15:44.545Z,2075.625
2019-04-19T11:16:43.785Z,2036.25
2019-04-19T11:17:43.574Z,2075.625
2019-04-19T11:18:43.538Z,2086.875
2019-04-19T11:19:54.114Z,2041.875
2019-04-19T11:20:48.602Z,2030.625
2019-04-19T11:21:45.543Z,2092.5
2019-04-19T11:22:45.826Z,2154.375
2019-04-19T11:23:44.179Z,2188.125
2019-04-19T11:24:43.915Z,2193.75
2019-04-19T11:25:46.103Z,2176.875
2019-04-19T11:26:45.344Z,2109.375
2019-04-19T11:27:44.848Z,2075.625
2019-04-19T11:28:45.155Z,2075.625
2019-04-19T11:29:44.742Z,2064.375
2019-04-19T11:30:44.456Z,2047.5
2019-04-19T11:31:43.998Z,2109.375
2019-04-19T11:32:44.255Z,2154.375
2019-04-19T11:33:44.065Z,2205
2019-04-19T11:34:45.106Z,2289.375
2019-04-19T11:35:45.610Z,2306.25
2019-04-19T11:36:44.225Z,2199.375
2019-04-19T11:37:45.264Z,2047.5
2019-04-19T11:38:44.994Z,1878.75
2019-04-19T11:39:46.215Z,1743.75
2019-04-19T11:40:44.897Z,1642.5
2019-04-19T11:41:45.101Z,1603.125
2019-04-19T11:42:45.485Z,1586.25
2019-04-19T11:43:45.286Z,1636.875
2019-04-19T11:44:45.603Z,1715.625
2019-04-19T11:45:44.359Z,1794.375
2019-04-19T11:46:45.840Z,1833.75
2019-04-19T11:47:45.092Z,1828.125
2019-04-19T11:48:45.745Z,1811.25
2019-04-19T11:49:47.182Z,1805.625
2019-04-19T11:50:45.434Z,1811.25
2019-04-19T11:51:45.856Z,1839.375
2019-04-19T11:52:46.011Z,1923.75
2019-04-19T11:53:45.233Z,1974.375
2019-04-19T11:54:46.416Z,1957.5
2019-04-19T11:55:45.063Z,1935
2019-04-19T11:56:50.424Z,1923.75
2019-04-19T11:57:46.351Z,1946.25
2019-04-19T11:58:46.596Z,2036.25
2019-04-19T11:59:50.561Z,2103.75
2019-04-19T12:00:47.806Z,2115
2019-04-19T12:01:45.994Z,2193.75
2019-04-19T12:02:46.222Z,2261.25
2019-04-19T12:03:45.761Z,2255.625
2019-04-19T12:04:46.183Z,2064.375
2019-04-19T12:05:46.271Z,2081.25
2019-04-19T12:06:45.569Z,2098.125
2019-04-19T12:07:46.456Z,2126.25
2019-04-19T12:08:46.330Z,2126.25
2019-04-19T12:09:45.929Z,2092.5
2019-04-19T12:10:46.408Z,2041.875
2019-04-19T12:11:46.393Z,2019.375
2019-04-19T12:12:46.081Z,2008.125
2019-04-19T12:13:46.468Z,2002.5
2019-04-19T12:14:46.229Z,2002.5
2019-04-19T12:15:48.523Z,2013.75
2019-04-19T12:16:47.369Z,2041.875
2019-04-19T12:17:46.302Z,2047.5
2019-04-19T12:18:46.746Z,2025
2019-04-19T12:19:52.653Z,1996.875
2019-04-19T12:20:47.624Z,1974.375
2019-04-19T12:21:47.686Z,1996.875
2019-04-19T12:22:47.648Z,2013.75
2019-04-19T12:23:46.799Z,2030.625
2019-04-19T12:24:47.549Z,2075.625
2019-04-19T12:25:47.861Z,2126.25
2019-04-19T12:26:47.583Z,2160
2019-04-19T12:27:47.670Z,2176.875
2019-04-19T12:28:47.884Z,2221.875
2019-04-19T12:29:48.515Z,2238.75
2019-04-19T12:30:51.515Z,2244.375
2019-04-19T12:31:48.150Z,2216.25
2019-04-19T12:32:47.583Z,2210.625
2019-04-19T12:33:47.566Z,2193.75
2019-04-19T12:34:48.643Z,2199.375
2019-04-19T12:35:49.350Z,2227.5
2019-04-19T12:36:48.871Z,2244.375
2019-04-19T12:37:49.053Z,2244.375
2019-04-19T12:38:48.652Z,2221.875
2019-04-19T12:39:48.579Z,2154.375
2019-04-19T12:40:47.827Z,2115
2019-04-19T12:41:48.203Z,2137.5
2019-04-19T12:42:47.743Z,2109.375
2019-04-19T12:43:48.270Z,2075.625
2019-04-19T12:44:47.999Z,2064.375
2019-04-19T12:45:51.821Z,2047.5
2019-04-19T12:46:49.058Z,2041.875
2019-04-19T12:47:48.960Z,2053.125
2019-04-19T12:48:49.790Z,2008.125
2019-04-19T12:49:55.791Z,1884.375
2019-04-19T12:50:49.658Z,1816.875
2019-04-19T12:51:48.551Z,1788.75
2019-04-19T12:52:48.634Z,1771.875
2019-04-19T12:53:51.104Z,1693.125
2019-04-19T12:54:49.884Z,1653.75
2019-04-19T12:55:50.174Z,1676.25
2019-04-19T12:56:49.778Z,1693.125
2019-04-19T12:57:49.905Z,1704.375
2019-04-19T12:58:50.001Z,1698.75
2019-04-19T12:59:49.578Z,1665
2019-04-19T13:00:50.617Z,1620
2019-04-19T13:01:50.491Z,1631.25
2019-04-19T13:02:51.694Z,1698.75
2019-04-19T13:03:50.653Z,1743.75
2019-04-19T13:04:58.126Z,1755
2019-04-19T13:06:47.970Z,1783.125
2019-04-19T13:07:49.249Z,1805.625
2019-04-19T13:08:47.829Z,1783.125
2019-04-19T13:09:47.698Z,1715.625
2019-04-19T13:10:47.410Z,1670.625
2019-04-19T13:11:48.717Z,1659.375
2019-04-19T13:12:48.402Z,1676.25
2019-04-19T13:13:48.285Z,1676.25
2019-04-19T13:14:48.007Z,1665
2019-04-19T13:15:48.139Z,1665
2019-04-19T13:16:48.448Z,1676.25
2019-04-19T13:17:48.413Z,1715.625
2019-04-19T13:18:48.366Z,1749.375
2019-04-19T13:20:00.448Z,1755
2019-04-19T13:20:49.079Z,1749.375
2019-04-19T13:21:47.831Z,1726.875
2019-04-19T13:22:48.488Z,1704.375
2019-04-19T13:23:48.414Z,1698.75
2019-04-19T13:24:47.721Z,1670.625
2019-04-19T13:25:49.093Z,1636.875
2019-04-19T13:26:48.327Z,1591.875
2019-04-19T13:27:54.148Z,1580.625
2019-04-19T13:28:49.530Z,1563.75
2019-04-19T13:29:48.078Z,1546.875
2019-04-19T13:30:53.504Z,1535.625
2019-04-19T13:31:49.409Z,1535.625
2019-04-19T13:32:49.542Z,1524.375
2019-04-19T13:33:48.895Z,1507.5
2019-04-19T13:34:49.429Z,1473.75
2019-04-19T13:35:48.887Z,1496.25
2019-04-19T13:36:49.048Z,1501.875
2019-04-19T13:37:49.251Z,1496.25